sensor_id;sensor_type;location;lat;lon;timestamp;pressure;altitude;pressure_sealevel;temperature;humidity
53659;BME280;41524;35.624;139.698;2024-03-23T00:55:11;101915.00;;;6.72;39.73
53659;BME280;41524;35.624;139.698;2024-03-23T01:00:13;101914.00;;;6.15;40.45
53659;BME280;41524;35.624;139.698;2024-03-23T01:05:11;101924.00;;;6.28;41.69
53659;BME280;41524;35.624;139.698;2024-03-23T01:10:11;101938.00;;;6.83;41.41
53659;BME280;41524;35.624;139.698;2024-03-23T01:15:11;101964.00;;;5.20;44.00
53659;BME280;41524;35.624;139.698;2024-03-23T01:20:11;101973.00;;;6.17;42.32
53659;BME280;41524;35.624;139.698;2024-03-23T01:25:11;101960.00;;;5.38;44.23
53659;BME280;41524;35.624;139.698;2024-03-23T01:30:11;101930.00;;;6.04;44.27
53659;BME280;41524;35.624;139.698;2024-03-23T01:35:10;101905.00;;;7.22;40.81
53659;BME280;41524;35.624;139.698;2024-03-23T01:40:12;101891.00;;;5.81;42.65
53659;BME280;41524;35.624;139.698;2024-03-23T01:45:12;101890.00;;;7.65;40.39
53659;BME280;41524;35.624;139.698;2024-03-23T01:50:12;101904.00;;;6.92;42.04
53659;BME280;41524;35.624;139.698;2024-03-23T01:55:11;101907.00;;;6.61;41.45
53659;BME280;41524;35.624;139.698;2024-03-23T02:00:12;101886.00;;;8.20;41.59
53659;BME280;41524;35.624;139.698;2024-03-23T02:05:12;101899.00;;;6.35;43.47
53659;BME280;41524;35.624;139.698;2024-03-23T02:10:12;101877.00;;;6.29;44.17
53659;BME280;41524;35.624;139.698;2024-03-23T02:15:12;101886.00;;;5.55;44.80
53659;BME280;41524;35.624;139.698;2024-03-23T02:20:13;101868.00;;;5.79;45.02
53659;BME280;41524;35.624;139.698;2024-03-23T02:25:11;101843.00;;;7.12;45.38
53659;BME280;41524;35.624;139.698;2024-03-23T02:30:12;101821.00;;;7.02;45.76
53659;BME280;41524;35.624;139.698;2024-03-23T02:35:11;101821.00;;;8.13;46.49
53659;BME280;41524;35.624;139.698;2024-03-23T02:40:12;101821.00;;;7.68;45.72
53659;BME280;41524;35.624;139.698;2024-03-23T02:45:11;101818.00;;;6.98;47.28
53659;BME280;41524;35.624;139.698;2024-03-23T02:50:11;101805.00;;;6.13;48.30
53659;BME280;41524;35.624;139.698;2024-03-23T02:55:10;101808.00;;;6.90;47.70
53659;BME280;41524;35.624;139.698;2024-03-23T03:00:11;101795.00;;;6.10;50.60
53659;BME280;41524;35.624;139.698;2024-03-23T03:05:11;101781.00;;;6.89;48.69
53659;BME280;41524;35.624;139.698;2024-03-23T03:10:11;101754.00;;;5.83;51.56
53659;BME280;41524;35.624;139.698;2024-03-23T03:15:10;101750.00;;;6.77;51.29
53659;BME280;41524;35.624;139.698;2024-03-23T03:20:11;101756.00;;;6.41;50.03
53659;BME280;41524;35.624;139.698;2024-03-23T03:25:10;101748.00;;;6.80;51.31
53659;BME280;41524;35.624;139.698;2024-03-23T03:30:11;101735.00;;;6.03;52.47
53659;BME280;41524;35.624;139.698;2024-03-23T03:35:12;101707.00;;;7.11;49.82
53659;BME280;41524;35.624;139.698;2024-03-23T03:40:12;101718.00;;;8.07;49.65
53659;BME280;41524;35.624;139.698;2024-03-23T03:45:11;101708.00;;;6.36;54.06
53659;BME280;41524;35.624;139.698;2024-03-23T03:50:11;101688.00;;;6.64;55.24
53659;BME280;41524;35.624;139.698;2024-03-23T03:55:14;101687.00;;;6.15;55.64
53659;BME280;41524;35.624;139.698;2024-03-23T04:00:12;101684.00;;;7.21;54.58
53659;BME280;41524;35.624;139.698;2024-03-23T04:05:11;101658.00;;;7.47;51.48
53659;BME280;41524;35.624;139.698;2024-03-23T04:10:12;101657.00;;;7.04;53.59
53659;BME280;41524;35.624;139.698;2024-03-23T04:15:11;101621.00;;;9.61;48.63
53659;BME280;41524;35.624;139.698;2024-03-23T04:20:11;101597.00;;;7.54;51.38
53659;BME280;41524;35.624;139.698;2024-03-23T04:25:11;101579.00;;;9.65;47.89
53659;BME280;41524;35.624;139.698;2024-03-23T04:30:12;101552.00;;;7.51;48.78
53659;BME280;41524;35.624;139.698;2024-03-23T04:35:11;101554.00;;;7.73;50.50
53659;BME280;41524;35.624;139.698;2024-03-23T04:40:11;101549.00;;;6.95;51.17
53659;BME280;41524;35.624;139.698;2024-03-23T04:45:13;101528.00;;;5.34;56.21
53659;BME280;41524;35.624;139.698;2024-03-23T04:50:11;101517.00;;;7.40;52.16
53659;BME280;41524;35.624;139.698;2024-03-23T04:55:10;101518.00;;;6.79;53.25
53659;BME280;41524;35.624;139.698;2024-03-23T05:00:12;101513.00;;;7.58;53.06
53659;BME280;41524;35.624;139.698;2024-03-23T05:05:12;101511.00;;;7.68;52.25
53659;BME280;41524;35.624;139.698;2024-03-23T05:10:12;101484.00;;;7.54;52.74
53659;BME280;41524;35.624;139.698;2024-03-23T05:15:12;101462.00;;;7.99;52.95
53659;BME280;41524;35.624;139.698;2024-03-23T05:20:11;101460.00;;;7.34;53.51
53659;BME280;41524;35.624;139.698;2024-03-23T05:25:11;101474.00;;;6.75;56.36
53659;BME280;41524;35.624;139.698;2024-03-23T05:30:11;101464.00;;;7.15;57.10
53659;BME280;41524;35.624;139.698;2024-03-23T05:35:19;101459.00;;;8.82;54.06
53659;BME280;41524;35.624;139.698;2024-03-23T05:40:20;101459.00;;;7.32;56.94
53659;BME280;41524;35.624;139.698;2024-03-23T05:45:10;101450.00;;;8.42;54.23
53659;BME280;41524;35.624;139.698;2024-03-23T05:50:12;101451.00;;;8.74;52.37
53659;BME280;41524;35.624;139.698;2024-03-23T05:55:11;101449.00;;;8.14;54.31
53659;BME280;41524;35.624;139.698;2024-03-23T06:00:11;101440.00;;;7.69;55.95
53659;BME280;41524;35.624;139.698;2024-03-23T06:05:11;101454.00;;;9.26;51.77
53659;BME280;41524;35.624;139.698;2024-03-23T06:10:11;101436.00;;;8.25;55.10
53659;BME280;41524;35.624;139.698;2024-03-23T06:15:11;101411.00;;;8.78;54.07
53659;BME280;41524;35.624;139.698;2024-03-23T06:20:12;101405.00;;;9.40;51.87
53659;BME280;41524;35.624;139.698;2024-03-23T06:25:11;101424.00;;;6.72;57.08
53659;BME280;41524;35.624;139.698;2024-03-23T06:30:12;101393.00;;;9.26;52.87
53659;BME280;41524;35.624;139.698;2024-03-23T06:35:11;101396.00;;;8.11;53.29
53659;BME280;41524;35.624;139.698;2024-03-23T06:40:12;101384.00;;;6.83;57.37
53659;BME280;41524;35.624;139.698;2024-03-23T06:45:12;101369.00;;;7.92;53.32
53659;BME280;41524;35.624;139.698;2024-03-23T06:50:10;101358.00;;;7.43;55.13
53659;BME280;41524;35.624;139.698;2024-03-23T06:55:11;101340.00;;;6.78;57.15
53659;BME280;41524;35.624;139.698;2024-03-23T07:00:13;101339.00;;;7.48;55.07
53659;BME280;41524;35.624;139.698;2024-03-23T07:05:11;101333.00;;;8.34;53.48
53659;BME280;41524;35.624;139.698;2024-03-23T07:10:11;101332.00;;;7.99;52.12
53659;BME280;41524;35.624;139.698;2024-03-23T07:15:11;101327.00;;;9.00;51.50
53659;BME280;41524;35.624;139.698;2024-03-23T07:20:12;101336.00;;;7.50;52.74
53659;BME280;41524;35.624;139.698;2024-03-23T07:25:13;101323.00;;;7.72;52.39
53659;BME280;41524;35.624;139.698;2024-03-23T07:30:12;101316.00;;;6.43;55.66
53659;BME280;41524;35.624;139.698;2024-03-23T07:35:11;101303.00;;;8.97;51.71
53659;BME280;41524;35.624;139.698;2024-03-23T07:40:12;101316.00;;;8.44;51.10
53659;BME280;41524;35.624;139.698;2024-03-23T07:45:12;101299.00;;;8.73;50.80
53659;BME280;41524;35.624;139.698;2024-03-23T07:50:16;101301.00;;;9.11;48.55
53659;BME280;41524;35.624;139.698;2024-03-23T07:55:11;101308.00;;;8.47;50.23
53659;BME280;41524;35.624;139.698;2024-03-23T08:00:13;101307.00;;;7.16;52.86
53659;BME280;41524;35.624;139.698;2024-03-23T08:05:11;101305.00;;;7.78;51.13
53659;BME280;41524;35.624;139.698;2024-03-23T08:10:10;101303.00;;;5.69;54.13
53659;BME280;41524;35.624;139.698;2024-03-23T08:15:11;101305.00;;;8.60;49.33
53659;BME280;41524;35.624;139.698;2024-03-23T08:20:12;101305.00;;;7.36;51.43
53659;BME280;41524;35.624;139.698;2024-03-23T08:25:11;101309.00;;;7.84;50.50
53659;BME280;41524;35.624;139.698;2024-03-23T08:30:13;101295.00;;;5.61;54.13
53659;BME280;41524;35.624;139.698;2024-03-23T08:35:11;101290.00;;;8.26;49.43
53659;BME280;41524;35.624;139.698;2024-03-23T08:40:12;101280.00;;;7.61;50.28
53659;BME280;41524;35.624;139.698;2024-03-23T08:45:11;101294.00;;;7.58;49.40
53659;BME280;41524;35.624;139.698;2024-03-23T08:50:11;101304.00;;;7.85;48.64
53659;BME280;41524;35.624;139.698;2024-03-23T08:55:11;101299.00;;;6.87;50.58
53659;BME280;41524;35.624;139.698;2024-03-23T09:00:11;101305.00;;;7.15;50.67
53659;BME280;41524;35.624;139.698;2024-03-23T09:05:11;101307.00;;;5.94;51.98
53659;BME280;41524;35.624;139.698;2024-03-23T09:10:12;101302.00;;;7.25;50.91
53659;BME280;41524;35.624;139.698;2024-03-23T09:15:11;101317.00;;;7.36;50.36
53659;BME280;41524;35.624;139.698;2024-03-23T09:20:11;101333.00;;;8.07;49.37
53659;BME280;41524;35.624;139.698;2024-03-23T09:25:10;101340.00;;;7.40;49.44
53659;BME280;41524;35.624;139.698;2024-03-23T09:30:12;101331.00;;;7.60;49.60
53659;BME280;41524;35.624;139.698;2024-03-23T09:35:11;101343.00;;;7.51;49.56
53659;BME280;41524;35.624;139.698;2024-03-23T09:40:12;101344.00;;;7.67;49.17
53659;BME280;41524;35.624;139.698;2024-03-23T09:45:17;101349.00;;;7.82;49.14
53659;BME280;41524;35.624;139.698;2024-03-23T09:50:12;101362.00;;;5.95;53.20
53659;BME280;41524;35.624;139.698;2024-03-23T09:55:12;101346.00;;;7.25;50.47
53659;BME280;41524;35.624;139.698;2024-03-23T10:00:12;101354.00;;;6.66;50.67
53659;BME280;41524;35.624;139.698;2024-03-23T10:05:22;101370.00;;;6.65;50.66
53659;BME280;41524;35.624;139.698;2024-03-23T10:10:12;101372.00;;;7.05;51.12
53659;BME280;41524;35.624;139.698;2024-03-23T10:15:18;101364.00;;;7.69;50.69
53659;BME280;41524;35.624;139.698;2024-03-23T10:20:12;101368.00;;;6.27;52.52
53659;BME280;41524;35.624;139.698;2024-03-23T10:25:12;101378.00;;;6.71;51.94
53659;BME280;41524;35.624;139.698;2024-03-23T10:30:12;101392.00;;;5.95;53.89
53659;BME280;41524;35.624;139.698;2024-03-23T10:35:20;101412.00;;;6.80;53.13
53659;BME280;41524;35.624;139.698;2024-03-23T10:40:13;101411.00;;;6.40;53.59
53659;BME280;41524;35.624;139.698;2024-03-23T10:45:11;101434.00;;;6.69;50.72
53659;BME280;41524;35.624;139.698;2024-03-23T10:50:11;101444.00;;;6.85;49.76
53659;BME280;41524;35.624;139.698;2024-03-23T10:55:12;101445.00;;;6.59;50.06
53659;BME280;41524;35.624;139.698;2024-03-23T11:00:13;101452.00;;;6.62;50.05
53659;BME280;41524;35.624;139.698;2024-03-23T11:05:48;101456.00;;;6.30;51.02
53659;BME280;41524;35.624;139.698;2024-03-23T11:10:26;101459.00;;;6.39;50.70
53659;BME280;41524;35.624;139.698;2024-03-23T11:15:13;101468.00;;;6.24;51.20
53659;BME280;41524;35.624;139.698;2024-03-23T11:20:12;101472.00;;;6.25;51.21
53659;BME280;41524;35.624;139.698;2024-03-23T11:25:17;101476.00;;;7.77;49.85
53659;BME280;41524;35.624;139.698;2024-03-23T11:30:14;101487.00;;;6.64;50.44
53659;BME280;41524;35.624;139.698;2024-03-23T11:35:24;101486.00;;;6.43;51.77
53659;BME280;41524;35.624;139.698;2024-03-23T11:40:27;101483.00;;;6.47;52.10
53659;BME280;41524;35.624;139.698;2024-03-23T11:45:12;101491.00;;;5.54;53.41
53659;BME280;41524;35.624;139.698;2024-03-23T11:50:19;101503.00;;;6.35;52.14
53659;BME280;41524;35.624;139.698;2024-03-23T11:55:12;101503.00;;;6.77;51.27
53659;BME280;41524;35.624;139.698;2024-03-23T12:00:23;101506.00;;;6.53;51.94
53659;BME280;41524;35.624;139.698;2024-03-23T12:05:18;101503.00;;;6.94;50.59
53659;BME280;41524;35.624;139.698;2024-03-23T12:10:12;101502.00;;;5.73;53.75
53659;BME280;41524;35.624;139.698;2024-03-23T12:15:11;101517.00;;;7.06;51.64
53659;BME280;41524;35.624;139.698;2024-03-23T12:20:12;101525.00;;;7.50;50.11
53659;BME280;41524;35.624;139.698;2024-03-23T12:25:11;101532.00;;;7.38;50.41
53659;BME280;41524;35.624;139.698;2024-03-23T12:30:12;101543.00;;;7.94;50.05
53659;BME280;41524;35.624;139.698;2024-03-23T12:35:10;101561.00;;;7.12;51.91
53659;BME280;41524;35.624;139.698;2024-03-23T12:40:12;101568.00;;;7.50;51.49
53659;BME280;41524;35.624;139.698;2024-03-23T12:45:11;101560.00;;;7.90;50.13
53659;BME280;41524;35.624;139.698;2024-03-23T12:50:12;101555.00;;;6.58;52.51
53659;BME280;41524;35.624;139.698;2024-03-23T12:55:12;101548.00;;;6.81;52.23
53659;BME280;41524;35.624;139.698;2024-03-23T13:00:12;101543.00;;;6.62;52.26
53659;BME280;41524;35.624;139.698;2024-03-23T13:05:11;101559.00;;;6.21;52.90
53659;BME280;41524;35.624;139.698;2024-03-23T13:10:12;101565.00;;;6.46;52.75
53659;BME280;41524;35.624;139.698;2024-03-23T13:15:11;101573.00;;;6.06;53.49
53659;BME280;41524;35.624;139.698;2024-03-23T13:20:11;101559.00;;;6.61;51.91
53659;BME280;41524;35.624;139.698;2024-03-23T13:25:11;101565.00;;;5.78;53.64
53659;BME280;41524;35.624;139.698;2024-03-23T13:30:12;101573.00;;;6.23;53.05
53659;BME280;41524;35.624;139.698;2024-03-23T13:35:11;101577.00;;;6.45;52.86
53659;BME280;41524;35.624;139.698;2024-03-23T13:40:12;101570.00;;;5.86;53.22
53659;BME280;41524;35.624;139.698;2024-03-23T13:45:12;101571.00;;;6.37;52.98
53659;BME280;41524;35.624;139.698;2024-03-23T13:50:12;101578.00;;;6.19;53.82
53659;BME280;41524;35.624;139.698;2024-03-23T13:55:11;101588.00;;;6.42;53.83
53659;BME280;41524;35.624;139.698;2024-03-23T14:00:23;101593.00;;;7.89;51.31
53659;BME280;41524;35.624;139.698;2024-03-23T14:05:11;101608.00;;;6.03;54.98
53659;BME280;41524;35.624;139.698;2024-03-23T14:10:12;101625.00;;;6.05;54.12
53659;BME280;41524;35.624;139.698;2024-03-23T14:15:12;101642.00;;;5.96;55.37
53659;BME280;41524;35.624;139.698;2024-03-23T14:20:12;101629.00;;;6.02;54.34
53659;BME280;41524;35.624;139.698;2024-03-23T14:25:12;101635.00;;;7.03;52.77
53659;BME280;41524;35.624;139.698;2024-03-23T14:30:11;101646.00;;;5.55;54.37
53659;BME280;41524;35.624;139.698;2024-03-23T14:35:11;101659.00;;;6.25;53.89
53659;BME280;41524;35.624;139.698;2024-03-23T14:40:12;101655.00;;;6.06;54.04
53659;BME280;41524;35.624;139.698;2024-03-23T14:45:11;101647.00;;;5.51;54.38
53659;BME280;41524;35.624;139.698;2024-03-23T14:50:11;101640.00;;;5.47;55.24
53659;BME280;41524;35.624;139.698;2024-03-23T14:55:11;101637.00;;;5.45;56.14
53659;BME280;41524;35.624;139.698;2024-03-23T15:00:17;101635.00;;;5.36;56.09
53659;BME280;41524;35.624;139.698;2024-03-23T15:05:12;101626.00;;;5.45;56.15
53659;BME280;41524;35.624;139.698;2024-03-23T15:10:12;101629.00;;;5.12;56.94
53659;BME280;41524;35.624;139.698;2024-03-23T15:15:11;101638.00;;;4.97;57.40
53659;BME280;41524;35.624;139.698;2024-03-23T15:20:12;101636.00;;;5.69;55.92
53659;BME280;41524;35.624;139.698;2024-03-23T15:25:11;101636.00;;;5.30;55.49
53659;BME280;41524;35.624;139.698;2024-03-23T15:30:13;101640.00;;;5.48;55.20
53659;BME280;41524;35.624;139.698;2024-03-23T15:35:11;101664.00;;;5.81;53.85
53659;BME280;41524;35.624;139.698;2024-03-23T15:40:13;101660.00;;;5.68;54.46
53659;BME280;41524;35.624;139.698;2024-03-23T15:45:11;101649.00;;;5.60;54.43
53659;BME280;41524;35.624;139.698;2024-03-23T15:50:11;101650.00;;;6.21;54.36
53659;BME280;41524;35.624;139.698;2024-03-23T15:55:12;101652.00;;;5.21;55.88
53659;BME280;41524;35.624;139.698;2024-03-23T16:00:12;101652.00;;;5.25;55.88
53659;BME280;41524;35.624;139.698;2024-03-23T16:05:10;101666.00;;;5.31;55.54
53659;BME280;41524;35.624;139.698;2024-03-23T16:10:10;101657.00;;;5.35;56.04
53659;BME280;41524;35.624;139.698;2024-03-23T16:15:12;101658.00;;;5.16;56.06
53659;BME280;41524;35.624;139.698;2024-03-23T16:20:12;101649.00;;;5.45;55.53
53659;BME280;41524;35.624;139.698;2024-03-23T16:25:11;101658.00;;;5.32;55.96
53659;BME280;41524;35.624;139.698;2024-03-23T16:30:12;101655.00;;;4.95;56.77
53659;BME280;41524;35.624;139.698;2024-03-23T16:35:13;101659.00;;;4.73;57.25
53659;BME280;41524;35.624;139.698;2024-03-23T16:40:12;101671.00;;;4.66;57.55
53659;BME280;41524;35.624;139.698;2024-03-23T16:45:12;101676.00;;;5.07;56.57
53659;BME280;41524;35.624;139.698;2024-03-23T16:50:11;101696.00;;;5.24;56.67
53659;BME280;41524;35.624;139.698;2024-03-23T16:55:11;101698.00;;;4.58;58.07
53659;BME280;41524;35.624;139.698;2024-03-23T17:00:12;101685.00;;;4.47;59.02
53659;BME280;41524;35.624;139.698;2024-03-23T17:05:11;101678.00;;;4.99;57.96
53659;BME280;41524;35.624;139.698;2024-03-23T17:10:11;101680.00;;;4.71;57.95
53659;BME280;41524;35.624;139.698;2024-03-23T17:15:15;101679.00;;;5.14;57.69
53659;BME280;41524;35.624;139.698;2024-03-23T17:20:10;101674.00;;;5.05;58.05
53659;BME280;41524;35.624;139.698;2024-03-23T17:25:11;101673.00;;;5.26;58.79
53659;BME280;41524;35.624;139.698;2024-03-23T17:30:12;101679.00;;;5.35;58.73
53659;BME280;41524;35.624;139.698;2024-03-23T17:35:12;101688.00;;;5.34;58.88
53659;BME280;41524;35.624;139.698;2024-03-23T17:40:12;101694.00;;;5.29;58.86
53659;BME280;41524;35.624;139.698;2024-03-23T17:45:12;101699.00;;;4.80;61.08
53659;BME280;41524;35.624;139.698;2024-03-23T17:50:11;101698.00;;;6.14;58.26
53659;BME280;41524;35.624;139.698;2024-03-23T17:55:11;101691.00;;;5.17;61.57
53659;BME280;41524;35.624;139.698;2024-03-23T18:00:11;101697.00;;;6.12;59.51
53659;BME280;41524;35.624;139.698;2024-03-23T18:05:11;101696.00;;;6.65;57.89
53659;BME280;41524;35.624;139.698;2024-03-23T18:10:11;101699.00;;;4.27;61.73
53659;BME280;41524;35.624;139.698;2024-03-23T18:15:12;101700.00;;;5.40;59.95
53659;BME280;41524;35.624;139.698;2024-03-23T18:20:11;101713.00;;;5.39;59.94
53659;BME280;41524;35.624;139.698;2024-03-23T18:25:12;101724.00;;;5.53;59.86
53659;BME280;41524;35.624;139.698;2024-03-23T18:30:12;101730.00;;;5.57;59.60
53659;BME280;41524;35.624;139.698;2024-03-23T18:35:12;101718.00;;;5.40;60.40
53659;BME280;41524;35.624;139.698;2024-03-23T18:40:11;101737.00;;;5.37;60.37
53659;BME280;41524;35.624;139.698;2024-03-23T18:45:12;101754.00;;;5.08;60.78
53659;BME280;41524;35.624;139.698;2024-03-23T18:50:11;101755.00;;;5.13;61.10
53659;BME280;41524;35.624;139.698;2024-03-23T18:55:11;101763.00;;;4.78;61.58
53659;BME280;41524;35.624;139.698;2024-03-23T19:00:12;101785.00;;;4.62;62.47
53659;BME280;41524;35.624;139.698;2024-03-23T19:05:11;101797.00;;;4.99;61.69
53659;BME280;41524;35.624;139.698;2024-03-23T19:10:12;101811.00;;;5.56;60.59
53659;BME280;41524;35.624;139.698;2024-03-23T19:15:11;101820.00;;;5.53;60.32
53659;BME280;41524;35.624;139.698;2024-03-23T19:20:12;101817.00;;;5.36;61.40
53659;BME280;41524;35.624;139.698;2024-03-23T19:25:11;101807.00;;;4.95;61.28
53659;BME280;41524;35.624;139.698;2024-03-23T19:30:11;101812.00;;;5.05;61.46
53659;BME280;41524;35.624;139.698;2024-03-23T19:35:11;101823.00;;;4.90;61.57
53659;BME280;41524;35.624;139.698;2024-03-23T19:40:11;101824.00;;;5.72;60.33
53659;BME280;41524;35.624;139.698;2024-03-23T19:45:11;101834.00;;;4.94;61.30
53659;BME280;41524;35.624;139.698;2024-03-23T19:50:11;101838.00;;;4.40;63.10
53659;BME280;41524;35.624;139.698;2024-03-23T19:55:11;101848.00;;;6.22;59.37
53659;BME280;41524;35.624;139.698;2024-03-23T20:00:13;101847.00;;;4.79;62.20
53659;BME280;41524;35.624;139.698;2024-03-23T20:05:12;101851.00;;;5.31;60.61
53659;BME280;41524;35.624;139.698;2024-03-23T20:10:11;101870.00;;;4.54;62.35
53659;BME280;41524;35.624;139.698;2024-03-23T20:15:10;101884.00;;;4.81;61.96
53659;BME280;41524;35.624;139.698;2024-03-23T20:20:11;101888.00;;;4.74;62.78
53659;BME280;41524;35.624;139.698;2024-03-23T20:25:10;101884.00;;;4.78;63.12
53659;BME280;41524;35.624;139.698;2024-03-23T20:30:11;101902.00;;;4.19;63.90
53659;BME280;41524;35.624;139.698;2024-03-23T20:35:11;101888.00;;;4.39;63.40
53659;BME280;41524;35.624;139.698;2024-03-23T20:40:11;101894.00;;;4.71;63.02
53659;BME280;41524;35.624;139.698;2024-03-23T20:45:10;101895.00;;;4.14;63.99
53659;BME280;41524;35.624;139.698;2024-03-23T20:50:11;101892.00;;;4.27;63.63
53659;BME280;41524;35.624;139.698;2024-03-23T20:55:11;101896.00;;;4.23;64.25
53659;BME280;41524;35.624;139.698;2024-03-23T21:00:12;101911.00;;;4.48;63.79
53659;BME280;41524;35.624;139.698;2024-03-23T21:05:11;101911.00;;;5.08;62.63
53659;BME280;41524;35.624;139.698;2024-03-23T21:10:11;101921.00;;;5.16;62.03
53659;BME280;41524;35.624;139.698;2024-03-23T21:15:12;101917.00;;;5.09;62.61
53659;BME280;41524;35.624;139.698;2024-03-23T21:20:11;101929.00;;;4.75;62.54
53659;BME280;41524;35.624;139.698;2024-03-23T21:25:12;101925.00;;;5.24;61.83
53659;BME280;41524;35.624;139.698;2024-03-23T21:30:11;101930.00;;;5.09;62.65
53659;BME280;41524;35.624;139.698;2024-03-23T21:35:12;101928.00;;;5.03;62.34
53659;BME280;41524;35.624;139.698;2024-03-23T21:40:11;101946.00;;;5.30;62.23
53659;BME280;41524;35.624;139.698;2024-03-23T21:45:11;101963.00;;;5.85;60.83
53659;BME280;41524;35.624;139.698;2024-03-23T21:50:11;101969.00;;;5.34;62.18
53659;BME280;41524;35.624;139.698;2024-03-23T21:55:11;101981.00;;;5.81;60.82
53659;BME280;41524;35.624;139.698;2024-03-23T22:00:12;101980.00;;;6.32;59.76
53659;BME280;41524;35.624;139.698;2024-03-23T22:05:11;101985.00;;;6.45;58.78
53659;BME280;41524;35.624;139.698;2024-03-23T22:10:10;101995.00;;;5.80;60.31
53659;BME280;41524;35.624;139.698;2024-03-23T22:15:11;102007.00;;;5.46;60.88
53659;BME280;41524;35.624;139.698;2024-03-23T22:20:11;102010.00;;;5.78;60.59
53659;BME280;41524;35.624;139.698;2024-03-23T22:25:21;102000.00;;;5.90;60.64
53659;BME280;41524;35.624;139.698;2024-03-23T22:30:12;101999.00;;;6.35;59.77
53659;BME280;41524;35.624;139.698;2024-03-23T22:35:12;102011.00;;;7.34;57.57
53659;BME280;41524;35.624;139.698;2024-03-23T22:40:12;102014.00;;;6.37;58.58
53659;BME280;41524;35.624;139.698;2024-03-23T22:45:11;102019.00;;;6.88;58.63
53659;BME280;41524;35.624;139.698;2024-03-23T22:50:11;102015.00;;;7.24;57.89
53659;BME280;41524;35.624;139.698;2024-03-23T22:55:12;102018.00;;;7.65;57.20
53659;BME280;41524;35.624;139.698;2024-03-23T23:00:11;102015.00;;;7.15;57.75
53659;BME280;41524;35.624;139.698;2024-03-23T23:05:11;102020.00;;;7.46;57.31
53659;BME280;41524;35.624;139.698;2024-03-23T23:10:11;102022.00;;;6.60;58.53
53659;BME280;41524;35.624;139.698;2024-03-23T23:15:11;102022.00;;;7.99;56.32
53659;BME280;41524;35.624;139.698;2024-03-23T23:20:12;102024.00;;;7.35;57.45
53659;BME280;41524;35.624;139.698;2024-03-23T23:25:12;102015.00;;;7.90;56.73
53659;BME280;41524;35.624;139.698;2024-03-23T23:30:11;102021.00;;;8.09;56.36
53659;BME280;41524;35.624;139.698;2024-03-23T23:35:11;102022.00;;;9.03;54.53
53659;BME280;41524;35.624;139.698;2024-03-23T23:41:26;102035.00;;;8.23;56.15
53659;BME280;41524;35.624;139.698;2024-03-23T23:45:10;102043.00;;;8.61;55.51
53659;BME280;41524;35.624;139.698;2024-03-23T23:50:11;102027.00;;;8.54;55.30
53659;BME280;41524;35.624;139.698;2024-03-23T23:55:11;102025.00;;;8.67;55.22
